CheckWX is a tool to help pilots better visualize weather data.  It is not intended as a substitute for an official pre-flight weather briefing.

02:04:01 UTC

EGQL TAF
RAF Leuchars Airport
St. Andrews, United Kingdom
TAF EGQL 122209Z 1300/1309 03008KT 9999 BKN015 TEMPO 1300/1309 7000 RA BKN010 PROB40 TEMPO 1300/1303 3000 RADZ SCT006 BKN010

Dec-13@
00:00 UTC

Dec-13 @ 00:00 UTC

Dec-13@
09:00 UTC

Dec-13 @ 09:00 UTC

TAF EGQL 122209Z 1300/1309 03008KT 9999 BKN015
Wind
  • 030° at 8 KTS
Cloud Levels
  • Broken at 1,500' AGL

Dec-13@
00:00 UTC

Dec-13 @ 00:00 UTC

Dec-13@
03:00 UTC

Dec-13 @ 03:00 UTC

PROB40 TEMPO 1300/1303 3000 RADZ SCT006 BKN010

Temporary - 40% Likelihood

Temporary - 40% Likelihood during this time.

Conditions
Rain, Drizzle
Cloud Levels
  • Scattered at 600' AGL
  • Broken at 1,000' AGL

Dec-13@
00:00 UTC

Dec-13 @ 00:00 UTC

Dec-13@
09:00 UTC

Dec-13 @ 09:00 UTC

TEMPO 1300/1309 7000 RA BKN010

Temporary

Temporary Changes expected for less than half the time period

Conditions
Rain
Cloud Levels
  • Broken at 1,000' AGL